Time;durP1;ratioP1;P1;durP2;ratioP2;P2;SDS_P1;SDS_P2;PMS_P1;PMS_P2;Temp;Humidity;BMP_temperature;BMP_pressure;BME280_temperature;BME280_humidity;BME280_pressure;Samples;Min_cycle;Max_cycle;Signal;HPM_P1;HPM_P2
2023/06/28 00:00:42;;;;;;;4.07;2.60;;;;;;;;;;5051573;28;20910;-50
2023/06/28 00:03:11;;;;;;;4.10;3.10;;;;;;;;;;5051791;28;20687;-52
2023/06/28 00:05:38;;;;;;;4.07;2.83;;;;;;;;;;5051382;28;20701;-52
2023/06/28 00:08:05;;;;;;;3.87;2.60;;;;;;;;;;5051495;28;20516;-51
2023/06/28 00:10:33;;;;;;;6.33;3.10;;;;;;;;;;5051435;28;20865;-52
2023/06/28 00:13:00;;;;;;;5.70;4.10;;;;;;;;;;5051441;28;20441;-52
2023/06/28 00:15:27;;;;;;;4.90;3.63;;;;;;;;;;5050760;28;20444;-51
2023/06/28 00:17:56;;;;;;;3.30;2.60;;;;;;;;;;5051488;28;20525;-52
2023/06/28 00:20:23;;;;;;;3.97;3.10;;;;;;;;;;5051188;28;20544;-50
2023/06/28 00:22:51;;;;;;;3.73;3.30;;;;;;;;;;5050905;28;20544;-51
2023/06/28 00:25:18;;;;;;;4.27;2.70;;;;;;;;;;5050776;28;20449;-49
2023/06/28 00:27:45;;;;;;;3.90;3.50;;;;;;;;;;5051269;28;20510;-52
2023/06/28 00:30:13;;;;;;;6.40;3.30;;;;;;;;;;5051214;28;20548;-51
2023/06/28 00:32:41;;;;;;;4.20;3.60;;;;;;;;;;5050631;28;20508;-50
2023/06/28 00:35:09;;;;;;;5.40;3.73;;;;;;;;;;5051129;28;21071;-50
2023/06/28 00:37:37;;;;;;;5.20;3.67;;;;;;;;;;5050631;28;20524;-50
2023/06/28 00:40:05;;;;;;;5.03;3.73;;;;;;;;;;5051157;28;20573;-50
2023/06/28 00:42:32;;;;;;;4.17;3.00;;;;;;;;;;5051046;28;20453;-51
2023/06/28 00:45:00;;;;;;;4.30;3.63;;;;;;;;;;5051316;28;20536;-52
2023/06/28 00:47:28;;;;;;;4.63;3.27;;;;;;;;;;5050667;28;20914;-50
2023/06/28 00:49:56;;;;;;;3.43;2.93;;;;;;;;;;5050821;28;20505;-50
2023/06/28 00:52:25;;;;;;;4.83;3.20;;;;;;;;;;5051013;28;20929;-50
2023/06/28 00:54:53;;;;;;;4.57;3.20;;;;;;;;;;5051209;28;20445;-52
2023/06/28 00:57:20;;;;;;;5.63;4.00;;;;;;;;;;5050722;28;20448;-50
2023/06/28 00:59:48;;;;;;;4.50;4.10;;;;;;;;;;5050957;28;20465;-51
2023/06/28 01:02:15;;;;;;;5.23;3.27;;;;;;;;;;5051381;28;20446;-52
2023/06/28 01:04:43;;;;;;;5.20;3.53;;;;;;;;;;5050531;28;20469;-52
2023/06/28 01:07:11;;;;;;;4.27;3.57;;;;;;;;;;5050744;28;20523;-50
2023/06/28 01:09:40;;;;;;;4.00;3.00;;;;;;;;;;5050669;28;20970;-50
2023/06/28 01:12:08;;;;;;;4.10;3.33;;;;;;;;;;5050631;28;20525;-51
2023/06/28 01:14:36;;;;;;;8.00;4.30;;;;;;;;;;5050118;28;20473;-50
2023/06/28 01:17:04;;;;;;;6.40;3.50;;;;;;;;;;5050062;28;20517;-49
2023/06/28 01:19:32;;;;;;;4.00;3.60;;;;;;;;;;5050401;28;20471;-50
2023/06/28 01:22:00;;;;;;;5.97;4.10;;;;;;;;;;5050808;28;20461;-50
2023/06/28 01:24:29;;;;;;;5.57;3.63;;;;;;;;;;5050702;28;20530;-52
2023/06/28 01:26:58;;;;;;;4.90;3.80;;;;;;;;;;5050197;28;20509;-53
2023/06/28 01:29:25;;;;;;;3.70;3.30;;;;;;;;;;5050729;28;20496;-51
2023/06/28 01:31:53;;;;;;;3.70;3.20;;;;;;;;;;5050721;28;20543;-51
2023/06/28 01:34:22;;;;;;;5.40;3.50;;;;;;;;;;5050817;28;20960;-51
2023/06/28 01:36:50;;;;;;;8.73;4.40;;;;;;;;;;5053892;28;20441;-51
2023/06/28 01:39:18;;;;;;;5.90;3.20;;;;;;;;;;5054434;28;20534;-52
2023/06/28 01:41:47;;;;;;;3.87;2.93;;;;;;;;;;5054053;28;20451;-51
2023/06/28 01:44:15;;;;;;;6.43;3.53;;;;;;;;;;5054076;28;20536;-49
2023/06/28 01:46:42;;;;;;;9.20;3.20;;;;;;;;;;5053906;28;20509;-49
2023/06/28 01:49:10;;;;;;;8.00;3.67;;;;;;;;;;5054201;28;20544;-49
2023/06/28 01:51:37;;;;;;;3.90;2.87;;;;;;;;;;5053941;28;20852;-49
2023/06/28 01:54:05;;;;;;;5.10;3.10;;;;;;;;;;5053926;28;20441;-50
2023/06/28 01:56:32;;;;;;;6.73;3.13;;;;;;;;;;5054008;28;20518;-49
2023/06/28 01:59:01;;;;;;;3.87;3.13;;;;;;;;;;5053922;28;20452;-51
2023/06/28 02:01:28;;;;;;;3.60;2.63;;;;;;;;;;5054015;28;20542;-51
2023/06/28 02:03:55;;;;;;;3.93;2.80;;;;;;;;;;5054130;28;20442;-49
2023/06/28 02:06:22;;;;;;;3.83;3.10;;;;;;;;;;5053459;28;20518;-50
2023/06/28 02:08:50;;;;;;;5.50;2.93;;;;;;;;;;5053589;28;21030;-51
2023/06/28 02:11:17;;;;;;;4.93;3.00;;;;;;;;;;5053930;28;20488;-50
2023/06/28 02:13:44;;;;;;;3.10;2.50;;;;;;;;;;5053778;28;20473;-52
2023/06/28 02:16:13;;;;;;;3.17;2.87;;;;;;;;;;5052858;28;20876;-50
2023/06/28 02:18:42;;;;;;;3.20;2.40;;;;;;;;;;5052558;28;20445;-51
2023/06/28 02:21:09;;;;;;;4.10;2.50;;;;;;;;;;5053627;28;20441;-49
2023/06/28 02:23:37;;;;;;;4.60;2.40;;;;;;;;;;5053774;28;20528;-51
2023/06/28 02:26:04;;;;;;;3.67;2.40;;;;;;;;;;5053340;28;20473;-49
2023/06/28 02:28:31;;;;;;;3.70;2.50;;;;;;;;;;5053245;28;20572;-49
2023/06/28 02:30:58;;;;;;;2.87;2.00;;;;;;;;;;5053268;28;20519;-49
2023/06/28 02:33:27;;;;;;;4.30;2.57;;;;;;;;;;5053244;28;20533;-49
2023/06/28 02:35:54;;;;;;;4.80;2.67;;;;;;;;;;5053167;28;20472;-49
2023/06/28 02:38:21;;;;;;;7.73;2.67;;;;;;;;;;5053256;28;20863;-50
2023/06/28 02:40:49;;;;;;;3.60;2.40;;;;;;;;;;5052928;28;20520;-50
2023/06/28 02:43:16;;;;;;;6.43;2.47;;;;;;;;;;5053352;28;20528;-51
2023/06/28 02:45:43;;;;;;;2.93;2.30;;;;;;;;;;5052306;28;20465;-50
2023/06/28 02:48:10;;;;;;;2.80;2.20;;;;;;;;;;5053184;28;20516;-50
2023/06/28 02:50:39;;;;;;;4.23;2.50;;;;;;;;;;5053205;28;20559;-50
2023/06/28 02:53:06;;;;;;;3.67;2.73;;;;;;;;;;5053236;28;20541;-49
2023/06/28 02:55:34;;;;;;;2.83;2.30;;;;;;;;;;5052819;28;20460;-49
2023/06/28 02:58:01;;;;;;;4.73;2.27;;;;;;;;;;5052688;28;20438;-49
2023/06/28 03:00:28;;;;;;;2.80;1.83;;;;;;;;;;5052377;28;20560;-49
2023/06/28 03:02:55;;;;;;;2.60;2.20;;;;;;;;;;5052837;28;20886;-49
2023/06/28 03:05:22;;;;;;;3.20;2.60;;;;;;;;;;5052373;28;20992;-51
2023/06/28 03:07:51;;;;;;;5.87;2.17;;;;;;;;;;5052394;28;20558;-51
2023/06/28 03:10:18;;;;;;;3.03;2.57;;;;;;;;;;5052453;28;21070;-50
2023/06/28 03:12:45;;;;;;;3.33;2.37;;;;;;;;;;5052456;28;20536;-52
2023/06/28 03:15:13;;;;;;;5.80;2.00;;;;;;;;;;5052008;28;20484;-49
2023/06/28 03:17:40;;;;;;;4.07;2.40;;;;;;;;;;5052789;28;20946;-49
2023/06/28 03:20:08;;;;;;;3.27;2.50;;;;;;;;;;5051898;28;20552;-52
2023/06/28 03:22:36;;;;;;;5.20;2.40;;;;;;;;;;5052517;28;20464;-50
2023/06/28 03:25:04;;;;;;;3.03;2.30;;;;;;;;;;5052406;28;20544;-49
2023/06/28 03:27:31;;;;;;;2.63;1.80;;;;;;;;;;5052050;28;20572;-49
2023/06/28 03:29:59;;;;;;;2.60;2.33;;;;;;;;;;5052287;28;20552;-49
2023/06/28 03:32:26;;;;;;;4.17;2.10;;;;;;;;;;5052477;28;20529;-50
2023/06/28 03:34:53;;;;;;;3.43;2.50;;;;;;;;;;5052327;28;20528;-50
2023/06/28 03:37:20;;;;;;;2.93;1.60;;;;;;;;;;5051811;28;20437;-50
2023/06/28 03:39:48;;;;;;;3.50;2.43;;;;;;;;;;5051807;28;20516;-50
2023/06/28 03:42:16;;;;;;;2.90;2.50;;;;;;;;;;5051482;28;20954;-51
2023/06/28 03:44:43;;;;;;;2.63;1.97;;;;;;;;;;5051877;28;20528;-51
2023/06/28 03:47:11;;;;;;;3.57;2.33;;;;;;;;;;5051695;28;20559;-49
2023/06/28 03:49:39;;;;;;;2.70;1.90;;;;;;;;;;5052075;28;20552;-49
2023/06/28 03:52:07;;;;;;;3.50;2.83;;;;;;;;;;5051790;28;20495;-50
2023/06/28 03:54:34;;;;;;;3.80;3.13;;;;;;;;;;5051706;28;20982;-49
2023/06/28 03:57:01;;;;;;;3.93;3.17;;;;;;;;;;5050840;28;20477;-50
2023/06/28 03:59:30;;;;;;;3.70;2.80;;;;;;;;;;5051541;28;20464;-49
2023/06/28 04:01:57;;;;;;;3.30;2.77;;;;;;;;;;5051629;28;20508;-50
2023/06/28 04:04:24;;;;;;;3.17;2.80;;;;;;;;;;5051754;28;20524;-51
2023/06/28 04:06:52;;;;;;;3.50;3.20;;;;;;;;;;5051279;28;20528;-50
2023/06/28 04:09:19;;;;;;;3.20;2.67;;;;;;;;;;5051472;28;20548;-50
2023/06/28 04:11:46;;;;;;;3.90;3.50;;;;;;;;;;5051674;28;20469;-50
2023/06/28 04:14:13;;;;;;;4.53;3.50;;;;;;;;;;5050888;28;20473;-49
2023/06/28 04:16:42;;;;;;;3.37;2.17;;;;;;;;;;5051366;28;20469;-50
2023/06/28 04:19:09;;;;;;;5.53;2.23;;;;;;;;;;5050193;28;20485;-50
2023/06/28 04:21:36;;;;;;;3.43;2.87;;;;;;;;;;5073146;23;20601;-84
2023/06/28 04:24:04;;;;;;;2.90;2.33;;;;;;;;;;5031922;28;20910;-83
2023/06/28 04:26:31;;;;;;;3.23;2.93;;;;;;;;;;5031868;28;20525;-83
2023/06/28 04:28:58;;;;;;;3.30;3.00;;;;;;;;;;5031830;28;20518;-83
2023/06/28 04:31:26;;;;;;;3.70;3.27;;;;;;;;;;5028156;28;20460;-83
2023/06/28 04:33:57;;;;;;;3.87;3.00;;;;;;;;;;5012061;28;20436;-84
2023/06/28 04:36:25;;;;;;;3.10;2.53;;;;;;;;;;5011947;28;20455;-84
2023/06/28 04:38:52;;;;;;;3.60;3.00;;;;;;;;;;5011759;28;20467;-84
2023/06/28 04:41:20;;;;;;;3.20;2.60;;;;;;;;;;5011817;28;20531;-84
2023/06/28 04:43:47;;;;;;;3.83;3.43;;;;;;;;;;5012065;28;20510;-84
2023/06/28 04:46:14;;;;;;;3.40;2.97;;;;;;;;;;5011582;28;20530;-84
2023/06/28 04:48:43;;;;;;;4.90;2.97;;;;;;;;;;5011755;28;20558;-84
2023/06/28 04:51:12;;;;;;;3.30;2.90;;;;;;;;;;5011412;28;20472;-84
2023/06/28 04:53:39;;;;;;;4.30;3.20;;;;;;;;;;5011644;28;20447;-84
2023/06/28 04:56:06;;;;;;;3.43;3.00;;;;;;;;;;5009858;28;20443;-84
2023/06/28 04:58:34;;;;;;;3.90;2.57;;;;;;;;;;5010270;28;20490;-84
2023/06/28 05:01:06;;;;;;;4.10;3.40;;;;;;;;;;5010986;28;20447;-83
2023/06/28 05:03:33;;;;;;;4.00;3.20;;;;;;;;;;5010803;28;20447;-83
2023/06/28 05:06:02;;;;;;;3.33;2.93;;;;;;;;;;5010699;28;20467;-83
2023/06/28 05:08:30;;;;;;;4.07;3.00;;;;;;;;;;5011535;28;20472;-84
2023/06/28 05:10:58;;;;;;;2.80;2.40;;;;;;;;;;5015654;28;20463;-83
2023/06/28 05:13:25;;;;;;;4.53;2.97;;;;;;;;;;5015543;28;20451;-84
2023/06/28 05:15:53;;;;;;;3.77;3.17;;;;;;;;;;5015166;28;20526;-86
2023/06/28 05:18:20;;;;;;;4.07;2.53;;;;;;;;;;5015197;28;20439;-84
2023/06/28 05:20:48;;;;;;;3.40;1.97;;;;;;;;;;5015379;28;20869;-86
2023/06/28 05:23:17;;;;;;;2.83;2.30;;;;;;;;;;5015922;28;20474;-87
2023/06/28 05:25:46;;;;;;;4.23;3.00;;;;;;;;;;5016275;28;20844;-86
2023/06/28 05:28:14;;;;;;;4.10;2.70;;;;;;;;;;5015796;28;20502;-83
2023/06/28 05:30:42;;;;;;;4.00;2.80;;;;;;;;;;5015549;28;20529;-87
2023/06/28 05:33:10;;;;;;;2.93;2.63;;;;;;;;;;5015871;28;20478;-86
2023/06/28 05:35:37;;;;;;;5.70;2.80;;;;;;;;;;5015509;28;20455;-85
2023/06/28 05:38:05;;;;;;;5.63;3.10;;;;;;;;;;5015451;28;20842;-85
2023/06/28 05:40:33;;;;;;;3.83;3.43;;;;;;;;;;5015324;28;20837;-85
2023/06/28 05:43:02;;;;;;;3.00;2.40;;;;;;;;;;5015228;28;20471;-84
2023/06/28 05:45:29;;;;;;;2.90;2.50;;;;;;;;;;5014853;28;20506;-84
2023/06/28 05:47:57;;;;;;;2.90;2.00;;;;;;;;;;5015149;28;20570;-85
2023/06/28 05:50:24;;;;;;;4.40;2.70;;;;;;;;;;5015119;28;20487;-85
2023/06/28 05:52:52;;;;;;;3.60;2.67;;;;;;;;;;5015182;28;20562;-83
2023/06/28 05:55:19;;;;;;;3.83;2.80;;;;;;;;;;5015853;28;20447;-81
2023/06/28 05:57:47;;;;;;;3.10;2.80;;;;;;;;;;5014445;28;20643;-81
2023/06/28 06:00:16;;;;;;;3.40;2.40;;;;;;;;;;5013754;28;20482;-81
2023/06/28 06:02:43;;;;;;;3.17;2.73;;;;;;;;;;5014503;28;20494;-81
2023/06/28 06:05:13;;;;;;;3.00;2.57;;;;;;;;;;5014997;28;20470;-81
2023/06/28 06:07:40;;;;;;;4.07;3.40;;;;;;;;;;5015111;28;20451;-81
2023/06/28 06:10:09;;;;;;;3.83;2.30;;;;;;;;;;5015568;28;20877;-81
2023/06/28 06:12:36;;;;;;;4.00;3.70;;;;;;;;;;5016523;28;20462;-81
2023/06/28 06:15:04;;;;;;;4.10;3.67;;;;;;;;;;5015052;28;20489;-81
2023/06/28 06:17:32;;;;;;;3.40;3.07;;;;;;;;;;5014857;28;20474;-81
2023/06/28 06:20:00;;;;;;;3.50;3.10;;;;;;;;;;5014654;28;20447;-81
2023/06/28 06:22:27;;;;;;;3.30;2.90;;;;;;;;;;5015912;28;21059;-81
2023/06/28 06:24:55;;;;;;;4.20;3.70;;;;;;;;;;5015508;28;20447;-82
2023/06/28 06:27:22;;;;;;;4.27;3.50;;;;;;;;;;5016868;28;20942;-82
2023/06/28 06:29:49;;;;;;;3.07;2.50;;;;;;;;;;5017397;28;20566;-82
2023/06/28 06:32:16;;;;;;;3.73;3.33;;;;;;;;;;5015886;28;20546;-80
2023/06/28 06:34:46;;;;;;;3.00;2.50;;;;;;;;;;5017120;28;20451;-81
2023/06/28 06:37:13;;;;;;;4.00;3.30;;;;;;;;;;5018192;28;20447;-85
2023/06/28 06:39:41;;;;;;;3.80;3.20;;;;;;;;;;5015935;28;20428;-84
2023/06/28 06:42:08;;;;;;;4.20;3.43;;;;;;;;;;5016080;28;20506;-85
2023/06/28 06:44:35;;;;;;;4.43;3.67;;;;;;;;;;5017562;28;20486;-85
2023/06/28 06:47:03;;;;;;;3.67;3.00;;;;;;;;;;5016797;28;20455;-90
2023/06/28 06:49:30;;;;;;;3.23;2.70;;;;;;;;;;5017223;28;20475;-87
2023/06/28 06:51:59;;;;;;;4.33;2.90;;;;;;;;;;5019027;28;20498;-83
2023/06/28 06:54:29;;;;;;;3.87;2.90;;;;;;;;;;5022523;28;20870;-83
2023/06/28 06:56:56;;;;;;;4.67;3.10;;;;;;;;;;5018883;28;20534;-87
2023/06/28 06:59:24;;;;;;;3.87;2.43;;;;;;;;;;5015873;28;20802;-85
2023/06/28 07:01:51;;;;;;;4.50;3.70;;;;;;;;;;5015308;28;20990;-88
2023/06/28 07:04:18;;;;;;;4.30;2.77;;;;;;;;;;5015053;28;20479;-85
2023/06/28 07:06:46;;;;;;;3.77;3.00;;;;;;;;;;5014748;28;20482;-86
2023/06/28 07:09:15;;;;;;;3.30;2.67;;;;;;;;;;5015448;28;20482;-86
2023/06/28 07:11:42;;;;;;;5.20;2.77;;;;;;;;;;5016400;28;20836;-86
2023/06/28 07:14:10;;;;;;;3.10;2.80;;;;;;;;;;5015380;28;20539;-84
2023/06/28 07:16:37;;;;;;;3.57;2.80;;;;;;;;;;5013265;28;20521;-85
2023/06/28 07:19:05;;;;;;;4.40;2.90;;;;;;;;;;5014876;28;20522;-84
2023/06/28 07:21:33;;;;;;;4.00;3.60;;;;;;;;;;5015999;28;20510;-86
2023/06/28 07:24:00;;;;;;;5.77;3.50;;;;;;;;;;5019270;28;20454;-84
2023/06/28 07:26:29;;;;;;;3.43;3.13;;;;;;;;;;5016680;28;20475;-84
2023/06/28 07:28:56;;;;;;;3.10;2.70;;;;;;;;;;5019552;28;20486;-84
2023/06/28 07:31:23;;;;;;;3.87;3.17;;;;;;;;;;5015698;28;20472;-84
2023/06/28 07:33:50;;;;;;;6.20;2.97;;;;;;;;;;5020077;28;20475;-84
2023/06/28 07:36:18;;;;;;;4.50;3.33;;;;;;;;;;5019656;28;20949;-84
2023/06/28 07:38:45;;;;;;;4.53;3.40;;;;;;;;;;5019135;28;20443;-83
2023/06/28 07:41:12;;;;;;;4.50;3.30;;;;;;;;;;5014258;28;20479;-84
2023/06/28 07:43:41;;;;;;;6.43;4.13;;;;;;;;;;5008834;28;21013;-84
2023/06/28 07:46:08;;;;;;;5.70;4.37;;;;;;;;;;5013723;28;20527;-84
2023/06/28 07:48:35;;;;;;;5.00;3.93;;;;;;;;;;5014212;28;20915;-84
2023/06/28 07:51:05;;;;;;;4.73;2.50;;;;;;;;;;5016087;28;20447;-84
2023/06/28 07:53:32;;;;;;;4.90;2.63;;;;;;;;;;5015984;28;20813;-84
2023/06/28 07:55:59;;;;;;;4.30;2.63;;;;;;;;;;5017252;28;20874;-84
2023/06/28 07:58:27;;;;;;;4.90;2.77;;;;;;;;;;5014370;28;20484;-84
2023/06/28 08:00:55;;;;;;;3.27;2.77;;;;;;;;;;5011879;28;20449;-85
2023/06/28 08:03:23;;;;;;;3.80;3.30;;;;;;;;;;5012918;28;20494;-84
2023/06/28 08:05:50;;;;;;;5.90;3.97;;;;;;;;;;5004158;28;20514;-87
2023/06/28 08:08:17;;;;;;;7.17;3.50;;;;;;;;;;5012353;28;20448;-87
2023/06/28 08:10:44;;;;;;;4.67;3.50;;;;;;;;;;5012358;28;20533;-86
2023/06/28 08:13:12;;;;;;;4.10;3.13;;;;;;;;;;5012295;28;20558;-87
2023/06/28 08:15:39;;;;;;;3.70;3.30;;;;;;;;;;5007331;28;20519;-85
2023/06/28 08:18:09;;;;;;;5.67;3.17;;;;;;;;;;5011888;28;20879;-85
2023/06/28 08:20:36;;;;;;;4.00;3.00;;;;;;;;;;5011659;28;20451;-85
2023/06/28 08:23:04;;;;;;;3.80;2.83;;;;;;;;;;5011770;28;20556;-85
2023/06/28 08:25:31;;;;;;;3.80;2.90;;;;;;;;;;5011992;28;20443;-85
2023/06/28 08:27:58;;;;;;;5.50;2.83;;;;;;;;;;5012323;28;20883;-86
2023/06/28 08:30:26;;;;;;;4.63;2.87;;;;;;;;;;5012166;28;20471;-85
2023/06/28 08:32:53;;;;;;;4.43;2.80;;;;;;;;;;5012139;28;20468;-86
2023/06/28 08:35:21;;;;;;;4.00;3.10;;;;;;;;;;5011589;28;20470;-85
2023/06/28 08:37:49;;;;;;;7.20;3.40;;;;;;;;;;5012089;28;20487;-85
2023/06/28 08:40:16;;;;;;;3.37;3.00;;;;;;;;;;5011557;28;20530;-85
2023/06/28 08:42:44;;;;;;;3.83;3.03;;;;;;;;;;5011927;28;20561;-85
2023/06/28 08:45:13;;;;;;;5.80;3.80;;;;;;;;;;5011256;28;20530;-85
2023/06/28 08:47:41;;;;;;;6.27;5.00;;;;;;;;;;5011837;28;20966;-86
2023/06/28 08:50:09;;;;;;;7.17;4.10;;;;;;;;;;5011694;28;20510;-85
2023/06/28 08:52:39;;;;;;;5.40;3.77;;;;;;;;;;5011788;28;20856;-85
2023/06/28 08:55:06;;;;;;;6.20;3.40;;;;;;;;;;5011768;28;20471;-85
2023/06/28 08:57:34;;;;;;;5.60;2.77;;;;;;;;;;5011580;28;20885;-85
2023/06/28 09:00:03;;;;;;;7.57;4.30;;;;;;;;;;5012489;28;20811;-85
2023/06/28 09:02:32;;;;;;;6.40;3.60;;;;;;;;;;5012880;28;20490;-85
2023/06/28 09:04:59;;;;;;;10.03;3.37;;;;;;;;;;5013104;28;20517;-85
2023/06/28 09:07:27;;;;;;;3.60;3.03;;;;;;;;;;5013042;28;20440;-85
2023/06/28 09:09:56;;;;;;;6.27;3.50;;;;;;;;;;5013903;28;20999;-85
2023/06/28 09:12:24;;;;;;;5.63;4.33;;;;;;;;;;5013301;28;20463;-85
2023/06/28 09:14:52;;;;;;;6.40;3.80;;;;;;;;;;5012953;28;20515;-85
2023/06/28 09:17:19;;;;;;;6.20;4.50;;;;;;;;;;5012125;28;20818;-84
2023/06/28 09:19:47;;;;;;;5.10;4.40;;;;;;;;;;5011462;28;20435;-85
2023/06/28 09:22:14;;;;;;;9.67;4.67;;;;;;;;;;5009982;28;20530;-85
2023/06/28 09:24:41;;;;;;;4.17;3.20;;;;;;;;;;5009669;28;20455;-85
2023/06/28 09:27:12;;;;;;;4.70;3.90;;;;;;;;;;5011147;28;20542;-85
2023/06/28 09:29:39;;;;;;;6.27;3.20;;;;;;;;;;5011442;28;20550;-85
2023/06/28 09:32:07;;;;;;;7.53;4.20;;;;;;;;;;5011306;28;20584;-85
2023/06/28 09:34:34;;;;;;;5.70;3.73;;;;;;;;;;5011361;28;20482;-85
2023/06/28 09:37:02;;;;;;;9.10;3.67;;;;;;;;;;5011375;28;20447;-85
2023/06/28 09:39:29;;;;;;;8.70;3.20;;;;;;;;;;5010802;28;20515;-85
2023/06/28 09:41:56;;;;;;;4.80;3.70;;;;;;;;;;5011475;28;20739;-85
2023/06/28 09:44:31;;;;;;;4.70;3.70;;;;;;;;;;5011487;28;20530;-85
2023/06/28 09:47:02;;;;;;;5.70;4.67;;;;;;;;;;5011129;28;20940;-85
2023/06/28 09:49:30;;;;;;;7.70;3.37;;;;;;;;;;5011219;28;20482;-85
2023/06/28 09:51:58;;;;;;;7.20;3.20;;;;;;;;;;5011336;28;20498;-85
2023/06/28 09:54:32;;;;;;;6.90;2.73;;;;;;;;;;5011650;28;20443;-85
2023/06/28 09:57:00;;;;;;;5.20;3.50;;;;;;;;;;5013659;28;20490;-85
2023/06/28 09:59:29;;;;;;;5.03;3.00;;;;;;;;;;5014857;28;20446;-85
2023/06/28 10:01:58;;;;;;;5.43;3.20;;;;;;;;;;5014794;28;20467;-85
2023/06/28 10:04:28;;;;;;;4.80;3.17;;;;;;;;;;5015335;28;20449;-85
2023/06/28 10:06:58;;;;;;;6.93;3.40;;;;;;;;;;5017931;28;20451;-83
2023/06/28 10:09:26;;;;;;;3.87;3.10;;;;;;;;;;5016943;28;20514;-85
2023/06/28 10:11:53;;;;;;;5.37;3.20;;;;;;;;;;5019507;28;20463;-84
2023/06/28 10:14:21;;;;;;;6.10;3.60;;;;;;;;;;5014707;28;20482;-84
2023/06/28 10:16:49;;;;;;;7.20;3.57;;;;;;;;;;5013835;28;20486;-83
2023/06/28 10:19:18;;;;;;;6.63;3.77;;;;;;;;;;5012752;28;20448;-85
2023/06/28 10:21:45;;;;;;;4.47;3.20;;;;;;;;;;5013852;28;21063;-84
2023/06/28 10:24:13;;;;;;;5.30;3.47;;;;;;;;;;5013802;28;20535;-84
2023/06/28 10:26:42;;;;;;;5.53;3.07;;;;;;;;;;5012097;28;20502;-83
2023/06/28 10:29:09;;;;;;;6.63;3.30;;;;;;;;;;5011947;28;20447;-85
2023/06/28 10:31:36;;;;;;;8.30;2.70;;;;;;;;;;5011978;28;20468;-85
2023/06/28 10:34:05;;;;;;;4.57;2.70;;;;;;;;;;5011361;28;20436;-85
2023/06/28 10:36:33;;;;;;;6.13;3.40;;;;;;;;;;5011811;28;21004;-85
2023/06/28 10:39:01;;;;;;;5.10;3.23;;;;;;;;;;5013147;28;20443;-85
2023/06/28 10:41:28;;;;;;;4.37;3.00;;;;;;;;;;5013082;28;20902;-85
2023/06/28 10:44:04;;;;;;;3.27;2.30;;;;;;;;;;5013181;28;20476;-86
2023/06/28 10:46:32;;;;;;;3.47;2.40;;;;;;;;;;5011389;28;20482;-83
2023/06/28 10:49:00;;;;;;;5.30;2.50;;;;;;;;;;5013784;28;20945;-84
2023/06/28 10:51:28;;;;;;;6.90;2.10;;;;;;;;;;5014158;28;20451;-84
2023/06/28 10:54:08;;;;;;;4.07;2.67;;;;;;;;;;5014802;28;20521;-87
2023/06/28 10:56:38;;;;;;;4.87;2.37;;;;;;;;;;5014659;28;20440;-83
2023/06/28 10:59:07;;;;;;;4.80;2.30;;;;;;;;;;5013364;28;20503;-83
2023/06/28 11:01:36;;;;;;;6.37;2.13;;;;;;;;;;5009754;28;20486;-83
2023/06/28 11:04:13;;;;;;;2.70;2.00;;;;;;;;;;5012438;28;20506;-83
2023/06/28 11:06:41;;;;;;;4.50;1.90;;;;;;;;;;5016388;28;20447;-83
2023/06/28 11:09:14;;;;;;;4.40;1.90;;;;;;;;;;5019201;28;20459;-81
2023/06/28 11:11:42;;;;;;;2.70;1.97;;;;;;;;;;5019383;28;20483;-80
2023/06/28 11:14:19;;;;;;;3.53;1.77;;;;;;;;;;5018744;28;20522;-80
2023/06/28 11:16:48;;;;;;;3.33;1.70;;;;;;;;;;5010605;28;20522;-81
2023/06/28 11:19:18;;;;;;;2.60;1.67;;;;;;;;;;5012558;28;20941;-81
2023/06/28 11:21:49;;;;;;;3.30;2.10;;;;;;;;;;5012576;28;20479;-80
2023/06/28 11:24:25;;;;;;;2.43;1.60;;;;;;;;;;5012478;28;20829;-81
2023/06/28 11:26:53;;;;;;;2.47;1.70;;;;;;;;;;5011540;28;20449;-81
2023/06/28 11:29:21;;;;;;;2.70;1.50;;;;;;;;;;5013004;28;20478;-81
2023/06/28 11:31:49;;;;;;;5.00;2.10;;;;;;;;;;5015610;28;20486;-81
2023/06/28 11:34:16;;;;;;;2.50;1.60;;;;;;;;;;5016873;28;20443;-81
2023/06/28 11:36:44;;;;;;;3.37;2.10;;;;;;;;;;5016671;28;20458;-80
2023/06/28 11:39:14;;;;;;;3.20;1.70;;;;;;;;;;5016104;28;20443;-81
2023/06/28 11:41:43;;;;;;;3.60;2.27;;;;;;;;;;5015954;28;20553;-81
2023/06/28 11:44:12;;;;;;;2.70;1.83;;;;;;;;;;5015654;28;20445;-81
2023/06/28 11:46:40;;;;;;;3.30;1.73;;;;;;;;;;5012457;28;20841;-81
2023/06/28 11:49:08;;;;;;;2.60;2.20;;;;;;;;;;5012982;28;20499;-81
2023/06/28 11:51:35;;;;;;;3.30;1.73;;;;;;;;;;5012961;28;20570;-81
2023/06/28 11:54:02;;;;;;;4.40;2.00;;;;;;;;;;5014286;28;20879;-80
2023/06/28 11:56:36;;;;;;;2.47;1.80;;;;;;;;;;5015955;28;20483;-81
2023/06/28 11:59:17;;;;;;;2.50;1.77;;;;;;;;;;5016856;28;20471;-80
2023/06/28 12:01:45;;;;;;;3.20;1.67;;;;;;;;;;5015637;28;20487;-81
2023/06/28 12:04:15;;;;;;;3.27;1.90;;;;;;;;;;5016401;28;20483;-80
2023/06/28 12:06:43;;;;;;;3.00;1.83;;;;;;;;;;5015984;28;20490;-80
2023/06/28 12:09:20;;;;;;;2.80;1.60;;;;;;;;;;5017067;28;20483;-80
2023/06/28 12:11:52;;;;;;;3.20;1.90;;;;;;;;;;5015460;28;20525;-80
2023/06/28 12:14:20;;;;;;;2.50;1.80;;;;;;;;;;5015168;28;20494;-80
2023/06/28 12:16:48;;;;;;;2.67;1.90;;;;;;;;;;5015465;28;20440;-81
2023/06/28 12:19:17;;;;;;;3.03;1.93;;;;;;;;;;5013739;28;20958;-81
2023/06/28 12:21:44;;;;;;;2.70;2.00;;;;;;;;;;5014813;28;20503;-80
2023/06/28 12:24:12;;;;;;;2.80;1.70;;;;;;;;;;5014785;28;20979;-80
2023/06/28 12:26:40;;;;;;;3.60;1.90;;;;;;;;;;5014608;28;20439;-80
2023/06/28 12:29:07;;;;;;;2.63;1.70;;;;;;;;;;5015408;28;20435;-81
2023/06/28 12:31:45;;;;;;;3.30;1.83;;;;;;;;;;5011897;28;20484;-80
2023/06/28 12:34:12;;;;;;;2.73;1.90;;;;;;;;;;5009947;28;20447;-80
2023/06/28 12:36:40;;;;;;;2.40;1.70;;;;;;;;;;5006905;28;20498;-80
2023/06/28 12:39:08;;;;;;;3.27;1.70;;;;;;;;;;5009590;28;20478;-80
2023/06/28 12:41:35;;;;;;;2.70;1.70;;;;;;;;;;5015012;28;20534;-81
2023/06/28 12:44:02;;;;;;;2.30;1.60;;;;;;;;;;5014880;28;20447;-80
2023/06/28 12:46:30;;;;;;;3.73;1.80;;;;;;;;;;5017727;28;20522;-81
2023/06/28 12:49:05;;;;;;;2.70;1.93;;;;;;;;;;5012057;28;20449;-80
2023/06/28 12:51:32;;;;;;;4.40;1.90;;;;;;;;;;5016234;28;20482;-80
2023/06/28 12:54:00;;;;;;;2.73;1.97;;;;;;;;;;5013934;28;20458;-80
2023/06/28 12:56:27;;;;;;;2.90;1.70;;;;;;;;;;5013310;28;20487;-80
2023/06/28 12:58:55;;;;;;;2.30;1.73;;;;;;;;;;5006843;28;20455;-80
2023/06/28 13:01:22;;;;;;;2.57;1.37;;;;;;;;;;5017046;28;20466;-80
2023/06/28 13:03:54;;;;;;;2.30;1.70;;;;;;;;;;5008117;28;20945;-80
2023/06/28 13:06:23;;;;;;;3.90;1.67;;;;;;;;;;5016805;28;20490;-80
2023/06/28 13:08:52;;;;;;;2.20;1.37;;;;;;;;;;5011254;28;20451;-80
2023/06/28 13:11:19;;;;;;;3.10;2.17;;;;;;;;;;5016258;28;20483;-80
2023/06/28 13:13:46;;;;;;;3.27;1.80;;;;;;;;;;5015594;28;20459;-80
2023/06/28 13:16:13;;;;;;;5.13;2.43;;;;;;;;;;5016182;28;20475;-80
2023/06/28 13:18:41;;;;;;;5.40;1.77;;;;;;;;;;5015993;28;20442;-80
2023/06/28 13:21:08;;;;;;;2.60;1.60;;;;;;;;;;5016834;28;20984;-80
2023/06/28 13:23:36;;;;;;;2.73;1.60;;;;;;;;;;5017175;28;20482;-80
2023/06/28 13:26:04;;;;;;;3.13;1.70;;;;;;;;;;5014832;28;20439;-80
2023/06/28 13:28:32;;;;;;;2.30;1.57;;;;;;;;;;5014701;28;20538;-80
2023/06/28 13:30:59;;;;;;;3.13;1.70;;;;;;;;;;5018460;28;20517;-80
2023/06/28 13:33:26;;;;;;;4.10;2.07;;;;;;;;;;5019311;28;20478;-80
2023/06/28 13:35:54;;;;;;;3.57;1.80;;;;;;;;;;5019307;28;20550;-80
2023/06/28 13:38:21;;;;;;;2.87;1.67;;;;;;;;;;5018575;28;20479;-80
2023/06/28 13:40:49;;;;;;;2.67;1.70;;;;;;;;;;5018698;28;20451;-80
2023/06/28 13:43:17;;;;;;;2.60;1.83;;;;;;;;;;5017403;28;20871;-80
2023/06/28 13:45:44;;;;;;;2.33;1.40;;;;;;;;;;5014882;28;20479;-80
2023/06/28 13:48:11;;;;;;;2.97;1.70;;;;;;;;;;5016955;28;20864;-80
2023/06/28 13:50:39;;;;;;;2.40;1.60;;;;;;;;;;5017082;28;20485;-80
2023/06/28 13:53:06;;;;;;;2.30;1.37;;;;;;;;;;5019828;28;20471;-80
2023/06/28 13:55:33;;;;;;;2.63;1.67;;;;;;;;;;5019312;28;20471;-80
2023/06/28 13:58:02;;;;;;;3.07;1.40;;;;;;;;;;5018834;28;21027;-80
2023/06/28 14:00:31;;;;;;;4.27;1.90;;;;;;;;;;5020443;28;20431;-80
2023/06/28 14:02:58;;;;;;;2.57;1.57;;;;;;;;;;5016794;28;20471;-80
2023/06/28 14:05:26;;;;;;;4.60;2.00;;;;;;;;;;5014620;28;20463;-80
2023/06/28 14:07:53;;;;;;;2.90;1.70;;;;;;;;;;5020100;28;20471;-81
2023/06/28 14:10:20;;;;;;;2.23;1.60;;;;;;;;;;5019666;28;20474;-81
2023/06/28 14:12:47;;;;;;;4.13;1.87;;;;;;;;;;5019005;28;20495;-80
2023/06/28 14:15:16;;;;;;;4.93;1.70;;;;;;;;;;5019543;28;20518;-80
2023/06/28 14:17:43;;;;;;;4.33;2.10;;;;;;;;;;5018586;28;20439;-80
2023/06/28 14:20:11;;;;;;;3.37;1.90;;;;;;;;;;5019289;28;20470;-80
2023/06/28 14:22:38;;;;;;;3.77;1.67;;;;;;;;;;5017343;28;20471;-80
2023/06/28 14:25:06;;;;;;;3.37;1.67;;;;;;;;;;5018096;28;20466;-80
2023/06/28 14:27:33;;;;;;;5.63;3.17;;;;;;;;;;5017443;28;20948;-80
2023/06/28 14:30:00;;;;;;;3.90;1.90;;;;;;;;;;5018156;28;20528;-81
2023/06/28 14:32:29;;;;;;;4.83;2.27;;;;;;;;;;5019095;28;20571;-81
2023/06/28 14:34:56;;;;;;;3.57;2.27;;;;;;;;;;5020673;28;20830;-80
2023/06/28 14:37:23;;;;;;;3.57;1.63;;;;;;;;;;5014598;28;20490;-81
2023/06/28 14:39:51;;;;;;;2.63;1.70;;;;;;;;;;5018793;28;20482;-81
2023/06/28 14:42:18;;;;;;;3.97;2.00;;;;;;;;;;5019716;28;20463;-81
2023/06/28 14:44:45;;;;;;;3.53;1.97;;;;;;;;;;5018762;28;20950;-81
2023/06/28 14:47:12;;;;;;;4.00;1.67;;;;;;;;;;5019615;28;20475;-81